Time;durP1;ratioP1;P1;durP2;ratioP2;P2;SDS_P1;SDS_P2;PMS_P1;PMS_P2;Temp;Humidity;BMP_temperature;BMP_pressure;BME280_temperature;BME280_humidity;BME280_pressure;Samples;Min_cycle;Max_cycle;Signal;HPM_P1;HPM_P2
2023/07/26 00:03:01;;;;;;;;;7.40;7.40;;;;;20.83;100.00;97507.22;6261060;27;96731;-70
2023/07/26 00:06:05;;;;;;;;;7.00;7.00;;;;;20.89;100.00;97505.13;6261356;27;97642;-71
2023/07/26 00:09:09;;;;;;;;;7.00;7.00;;;;;20.93;100.00;97497.88;6260739;27;96432;-70
2023/07/26 00:12:14;;;;;;;;;7.60;7.00;;;;;20.95;100.00;97501.09;6260782;27;96835;-71
2023/07/26 00:15:17;;;;;;;;;7.00;6.40;;;;;20.99;100.00;97496.59;6244526;27;96775;-71
2023/07/26 00:18:21;;;;;;;;;7.00;7.00;;;;;21.00;100.00;97490.78;6260203;27;96602;-70
2023/07/26 00:21:24;;;;;;;;;9.00;7.00;;;;;21.04;100.00;97490.94;6260657;27;96510;-70
2023/07/26 00:24:28;;;;;;;;;9.75;9.50;;;;;21.06;100.00;97502.41;6259658;27;96828;-70
2023/07/26 00:27:34;;;;;;;;;7.80;7.00;;;;;21.06;100.00;97503.16;6261387;27;96428;-71
2023/07/26 00:30:37;;;;;;;;;10.00;9.00;;;;;21.09;100.00;97496.25;6256603;27;96308;-70
2023/07/26 00:33:41;;;;;;;;;8.00;8.00;;;;;21.12;100.00;97507.38;6234961;27;96304;-71
2023/07/26 00:36:44;;;;;;;;;9.00;8.00;;;;;21.17;100.00;97503.69;6235403;28;96294;-71
2023/07/26 00:39:48;;;;;;;;;6.00;5.60;;;;;21.20;100.00;97497.56;6235119;28;98406;-70
2023/07/26 00:42:53;;;;;;;;;7.00;7.00;;;;;21.24;100.00;97505.94;6259255;27;96408;-71
2023/07/26 00:45:57;;;;;;;;;8.00;7.00;;;;;21.25;100.00;97499.34;6243915;27;97176;-71
2023/07/26 00:49:01;;;;;;;;;8.40;7.40;;;;;21.19;100.00;97495.97;6261515;27;96424;-71
2023/07/26 00:52:05;;;;;;;;;7.50;6.75;;;;;21.23;100.00;97504.34;6238910;27;96329;-70
2023/07/26 00:55:10;;;;;;;;;7.00;7.00;;;;;21.25;100.00;97502.09;6235126;28;96381;-68
2023/07/26 00:58:16;;;;;;;;;8.20;6.20;;;;;21.25;100.00;97504.81;6253408;27;96353;-69
2023/07/26 01:01:20;;;;;;;;;8.50;7.50;;;;;21.25;100.00;97507.56;6262716;27;96336;-69
2023/07/26 01:04:24;;;;;;;;;5.80;5.80;;;;;21.22;100.00;97513.69;6265623;27;96369;-68
2023/07/26 01:07:33;;;;;;;;;6.50;6.25;;;;;21.18;100.00;97497.09;6262540;27;97256;-69
2023/07/26 01:10:43;;;;;;;;;8.00;7.00;;;;;21.18;100.00;97480.63;6222921;28;100261;-69
2023/07/26 01:13:53;;;;;;;;;9.00;9.00;;;;;21.20;100.00;97485.81;6239104;28;96840;-69
2023/07/26 01:16:57;;;;;;;;;8.60;8.00;;;;;21.21;100.00;97488.19;6238775;28;98479;-69
2023/07/26 01:20:01;;;;;;;;;6.75;6.75;;;;;21.14;100.00;97485.97;6240221;28;96348;-70
2023/07/26 01:23:07;;;;;;;;;7.00;7.00;;;;;21.07;100.00;97496.56;6240029;27;96275;-70
2023/07/26 01:26:10;;;;;;;;;7.40;7.40;;;;;21.06;100.00;97492.22;6238916;28;97002;-69
2023/07/26 01:29:14;;;;;;;;;8.60;7.60;;;;;21.10;100.00;97471.28;6240053;27;97011;-69
2023/07/26 01:32:19;;;;;;;;;7.00;6.00;;;;;21.11;100.00;97474.81;6239939;28;96314;-69
2023/07/26 01:35:24;;;;;;;;;6.80;6.00;;;;;21.06;100.00;97478.50;6238929;28;97033;-70
2023/07/26 01:38:30;;;;;;;;;9.00;7.60;;;;;21.00;100.00;97477.09;6221727;28;96834;-69
2023/07/26 01:41:34;;;;;;;;;7.20;7.20;;;;;21.02;100.00;97474.81;6240320;28;96972;-69
2023/07/26 01:44:38;;;;;;;;;9.00;8.00;;;;;21.05;100.00;97478.84;6222094;28;96710;-70
2023/07/26 01:47:42;;;;;;;;;6.80;6.80;;;;;21.05;100.00;97484.34;6239417;27;96365;-69
2023/07/26 01:50:46;;;;;;;;;7.00;6.00;;;;;21.06;100.00;97494.19;6238222;28;96387;-69
2023/07/26 01:53:50;;;;;;;;;8.00;7.40;;;;;21.07;100.00;97487.53;6255627;27;96845;-69
2023/07/26 01:56:54;;;;;;;;;8.00;7.60;;;;;21.09;100.00;97497.06;6221584;28;98367;-68
2023/07/26 01:59:59;;;;;;;;;7.00;7.00;;;;;21.09;100.00;97488.84;6260537;27;97477;-70
2023/07/26 02:03:02;;;;;;;;;9.00;8.00;;;;;21.07;100.00;97503.97;6261043;27;96843;-71
2023/07/26 02:06:06;;;;;;;;;8.00;8.00;;;;;21.04;100.00;97499.97;6263564;27;96413;-71
2023/07/26 02:09:11;;;;;;;;;10.00;7.75;;;;;20.94;100.00;97492.06;6258868;27;97116;-70
2023/07/26 02:12:15;;;;;;;;;8.00;8.00;;;;;21.05;100.00;97504.31;6258839;27;96342;-71
2023/07/26 02:15:20;;;;;;;;;6.40;6.00;;;;;21.11;100.00;97496.75;6262891;27;98524;-69
2023/07/26 02:18:26;;;;;;;;;8.00;7.00;;;;;21.16;100.00;97489.19;6260128;27;96363;-69
2023/07/26 02:21:29;;;;;;;;;8.00;8.00;;;;;21.19;100.00;97495.97;6221482;28;98696;-69
2023/07/26 02:24:35;;;;;;;;;6.00;6.00;;;;;21.20;100.00;97485.81;6221062;28;98912;-70
2023/07/26 02:27:38;;;;;;;;;8.00;7.00;;;;;21.22;100.00;97494.50;6239226;27;96507;-68
2023/07/26 02:30:42;;;;;;;;;7.00;6.00;;;;;21.23;100.00;97498.84;6243902;27;96819;-70
2023/07/26 02:33:45;;;;;;;;;6.80;6.40;;;;;21.24;100.00;97493.06;6244267;27;98833;-71
2023/07/26 02:36:49;;;;;;;;;9.40;8.40;;;;;21.21;100.00;97482.72;6262686;27;96888;-70
2023/07/26 02:39:54;;;;;;;;;7.00;6.00;;;;;21.28;100.00;97484.97;6248422;27;96613;-70
2023/07/26 02:42:57;;;;;;;;;7.00;7.00;;;;;21.25;100.00;97493.84;6261314;27;98194;-70
2023/07/26 02:46:01;;;;;;;;;6.00;6.00;;;;;21.21;100.00;97503.88;6260074;27;98373;-70
2023/07/26 02:49:05;;;;;;;;;8.67;8.00;;;;;21.16;100.00;97500.13;6254725;27;96396;-71
2023/07/26 02:52:08;;;;;;;;;9.00;7.40;;;;;21.17;100.00;97495.47;6263092;27;96456;-71
2023/07/26 02:55:13;;;;;;;;;7.75;7.75;;;;;21.17;100.00;97496.28;6262424;27;97294;-70
2023/07/26 02:58:17;;;;;;;;;8.40;7.00;;;;;21.22;100.00;97491.75;6261434;27;96296;-71
2023/07/26 03:01:22;;;;;;;;;8.00;8.00;;;;;21.22;100.00;97481.59;6251083;27;96930;-69
2023/07/26 03:04:25;;;;;;;;;7.60;7.40;;;;;21.23;100.00;97477.72;6252664;27;96246;-71
2023/07/26 03:07:29;;;;;;;;;8.75;8.25;;;;;21.15;100.00;97470.34;6243024;27;96365;-71
2023/07/26 03:10:35;;;;;;;;;10.00;8.00;;;;;21.21;100.00;97481.94;6237507;27;96653;-69
2023/07/26 03:13:38;;;;;;;;;9.60;8.00;;;;;21.22;100.00;97484.34;6254122;27;96592;-68
2023/07/26 03:16:42;;;;;;;;;7.00;6.00;;;;;21.25;100.00;97491.13;6260003;27;96368;-71
2023/07/26 03:19:47;;;;;;;;;8.00;7.60;;;;;21.23;100.00;97482.41;6260227;27;97925;-69
2023/07/26 03:22:51;;;;;;;;;6.60;6.00;;;;;21.23;100.00;97490.63;6241460;27;96707;-69
2023/07/26 03:25:56;;;;;;;;;8.00;7.60;;;;;21.23;100.00;97501.59;6254044;27;96434;-69
2023/07/26 03:29:00;;;;;;;;;6.60;6.00;;;;;21.24;100.00;97504.00;6253915;27;96358;-68
2023/07/26 03:32:04;;;;;;;;;7.00;7.00;;;;;21.24;100.00;97514.97;6228213;27;98455;-69
2023/07/26 03:35:08;;;;;;;;;9.00;8.00;;;;;21.21;100.00;97503.88;6236178;27;96271;-70
2023/07/26 03:38:12;;;;;;;;;8.00;8.00;;;;;21.21;100.00;97504.66;6249381;27;96334;-70
2023/07/26 03:41:17;;;;;;;;;9.00;9.00;;;;;21.21;100.00;97509.34;6241741;27;96443;-70
2023/07/26 03:44:21;;;;;;;;;7.00;6.20;;;;;21.23;100.00;97515.28;6256518;27;96345;-68
2023/07/26 03:47:25;;;;;;;;;10.00;9.50;;;;;21.29;100.00;97519.47;6254768;27;97811;-69
2023/07/26 03:50:28;;;;;;;;;7.00;6.00;;;;;21.34;100.00;97516.56;6256454;27;97071;-69
2023/07/26 03:53:32;;;;;;;;;7.20;7.00;;;;;21.42;100.00;97508.34;6233917;27;97431;-68
2023/07/26 03:56:37;;;;;;;;;11.00;9.00;;;;;21.47;100.00;97518.31;6242470;27;96804;-69
2023/07/26 03:59:41;;;;;;;;;7.50;7.00;;;;;21.53;100.00;97503.31;6234252;27;96665;-69
2023/07/26 04:02:44;;;;;;;;;9.00;7.00;;;;;21.61;100.00;97506.03;6230773;27;98362;-69
2023/07/26 04:05:48;;;;;;;;;7.00;7.00;;;;;21.57;100.00;97512.50;6260548;27;98567;-70
2023/07/26 04:08:52;;;;;;;;;9.00;8.00;;;;;21.55;100.00;97509.28;6259400;27;96620;-70
2023/07/26 04:11:57;;;;;;;;;7.00;7.00;;;;;21.56;100.00;97517.19;6248732;27;96443;-69
2023/07/26 04:15:01;;;;;;;;;7.00;7.00;;;;;21.56;100.00;97524.59;6260846;27;96365;-70
2023/07/26 04:18:06;;;;;;;;;9.00;8.00;;;;;21.53;100.00;97534.28;6254952;27;96415;-69
2023/07/26 04:21:13;;;;;;;;;9.80;9.20;;;;;21.44;100.00;97525.28;6254104;27;96215;-70
2023/07/26 04:24:16;;;;;;;;;10.60;10.60;;;;;21.43;100.00;97526.41;6260613;27;96914;-70
2023/07/26 04:27:21;;;;;;;;;9.00;8.40;;;;;21.43;100.00;97529.16;6260222;27;97018;-70
2023/07/26 04:30:25;;;;;;;;;9.00;9.00;;;;;21.41;100.00;97534.13;6259205;27;96352;-69
2023/07/26 04:33:28;;;;;;;;;10.60;10.00;;;;;21.45;100.00;97539.78;6252805;27;96224;-69
2023/07/26 04:36:31;;;;;;;;;8.00;7.00;;;;;21.47;100.00;97537.53;6265440;27;96414;-70
2023/07/26 04:39:36;;;;;;;;;7.00;6.60;;;;;21.52;100.00;97551.06;6252833;27;96629;-70
2023/07/26 04:42:40;;;;;;;;;8.80;8.20;;;;;21.48;100.00;97537.19;6235612;27;96712;-70
2023/07/26 04:45:46;;;;;;;;;8.00;8.00;;;;;21.40;100.00;97518.84;6262064;27;96342;-69
2023/07/26 04:48:50;;;;;;;;;8.25;7.00;;;;;21.50;100.00;97523.19;6275987;27;96797;-69
2023/07/26 04:51:53;;;;;;;;;8.00;8.00;;;;;21.58;100.00;97527.81;6260737;27;96816;-69
2023/07/26 04:54:57;;;;;;;;;9.00;9.00;;;;;21.72;100.00;97522.13;6247351;27;96446;-70
2023/07/26 04:58:02;;;;;;;;;11.00;10.40;;;;;21.78;100.00;97520.84;6257174;27;96253;-70
2023/07/26 05:01:06;;;;;;;;;11.60;11.60;;;;;21.82;100.00;97535.50;6248250;27;97801;-69
2023/07/26 05:04:10;;;;;;;;;9.80;9.80;;;;;21.87;100.00;97546.31;6263863;27;96782;-69
2023/07/26 05:07:14;;;;;;;;;11.00;9.60;;;;;21.83;100.00;97542.63;6262756;27;96942;-70
2023/07/26 05:10:17;;;;;;;;;8.00;7.20;;;;;21.84;100.00;97550.53;6261874;27;96354;-70
2023/07/26 05:13:23;;;;;;;;;9.00;9.00;;;;;21.86;100.00;97552.91;6251986;27;96314;-70
2023/07/26 05:16:26;;;;;;;;;11.00;10.00;;;;;21.90;100.00;97549.19;6254771;27;98435;-69
2023/07/26 05:19:31;;;;;;;;;9.50;8.00;;;;;21.91;100.00;97556.28;6255651;27;96334;-70
2023/07/26 05:22:35;;;;;;;;;10.00;9.00;;;;;21.94;100.00;97555.66;6262563;27;96991;-70
2023/07/26 05:25:39;;;;;;;;;10.60;10.00;;;;;22.07;100.00;97553.88;6241387;27;96770;-70
2023/07/26 05:28:44;;;;;;;;;12.00;10.60;;;;;22.25;100.00;97558.16;6221790;28;98500;-70
2023/07/26 05:31:48;;;;;;;;;13.00;11.00;;;;;22.39;100.00;97549.66;6240505;27;96830;-70
2023/07/26 05:34:56;;;;;;;;;12.50;10.00;;;;;22.43;100.00;97545.16;6259396;27;97753;-69
2023/07/26 05:37:59;;;;;;;;;12.00;12.00;;;;;22.54;100.00;97542.81;6239951;27;96379;-70
2023/07/26 05:41:04;;;;;;;;;13.00;12.00;;;;;22.60;100.00;97541.50;6236887;28;98607;-69
2023/07/26 05:44:09;;;;;;;;;15.00;13.40;;;;;22.61;100.00;97535.69;6259513;27;98481;-71
2023/07/26 05:47:15;;;;;;;;;16.60;13.60;;;;;22.79;100.00;97544.63;6259310;27;96334;-72
2023/07/26 05:50:18;;;;;;;;;15.00;13.00;;;;;22.91;100.00;97547.47;6263281;27;96927;-71
2023/07/26 05:53:22;;;;;;;;;17.60;14.00;;;;;23.02;100.00;97539.63;6261432;27;96886;-71
2023/07/26 05:56:25;;;;;;;;;16.50;14.00;;;;;22.93;100.00;97525.94;6250189;27;96372;-70
2023/07/26 05:59:30;;;;;;;;;16.00;15.00;;;;;23.12;100.00;97544.72;6260151;27;98681;-69
2023/07/26 06:02:34;;;;;;;;;17.00;15.25;;;;;23.27;100.00;97531.16;6262453;27;96560;-69
2023/07/26 06:05:38;;;;;;;;;18.40;15.40;;;;;23.47;100.00;97535.06;6253106;27;97327;-71
2023/07/26 06:08:41;;;;;;;;;15.50;15.00;;;;;23.69;100.00;97533.88;6254538;27;96842;-71
2023/07/26 06:11:45;;;;;;;;;17.00;16.40;;;;;23.97;100.00;97542.31;6249628;27;96982;-71
2023/07/26 06:15:00;;;;;;;;;18.40;16.00;;;;;24.26;100.00;97536.63;6239517;27;96873;-71
2023/07/26 06:18:03;;;;;;;;;18.60;16.60;;;;;24.36;100.00;97530.69;6233894;27;96892;-71
2023/07/26 06:21:07;;;;;;;;;21.20;18.80;;;;;24.42;100.00;97543.06;6250677;27;96868;-71
2023/07/26 06:24:10;;;;;;;;;17.00;16.00;;;;;24.48;100.00;97549.16;6233249;27;98578;-70
2023/07/26 06:27:14;;;;;;;;;25.00;20.00;;;;;24.60;100.00;97547.19;6244153;27;96779;-71
2023/07/26 06:30:19;;;;;;;;;21.60;19.60;;;;;24.74;100.00;97560.63;6249799;27;97000;-71
2023/07/26 06:33:23;;;;;;;;;22.33;19.33;;;;;24.82;100.00;97556.94;6249097;27;96539;-71
2023/07/26 06:36:26;;;;;;;;;23.20;20.20;;;;;24.82;100.00;97556.94;6245265;27;96404;-71
2023/07/26 06:39:30;;;;;;;;;21.00;17.60;;;;;24.81;100.00;97571.88;6251040;27;97038;-71
2023/07/26 06:42:33;;;;;;;;;21.00;19.00;;;;;24.77;100.00;97573.72;6249228;27;96492;-70
2023/07/26 06:45:39;;;;;;;;;22.50;19.50;;;;;24.64;100.00;97569.34;6246464;27;96823;-70
2023/07/26 06:48:42;;;;;;;;;18.80;16.40;;;;;24.56;100.00;97568.31;6251658;27;96340;-70
2023/07/26 06:51:51;;;;;;;;;18.60;16.00;;;;;24.57;100.00;97567.19;6254990;27;96345;-70
2023/07/26 06:54:55;;;;;;;;;20.00;18.00;;;;;24.60;100.00;97571.19;6257034;27;96667;-71
2023/07/26 06:57:58;;;;;;;;;18.00;16.40;;;;;24.74;100.00;97565.31;6251916;27;96410;-70
2023/07/26 07:01:03;;;;;;;;;21.00;19.25;;;;;24.95;100.00;97568.78;6261239;27;96487;-71
2023/07/26 07:04:07;;;;;;;;;20.20;18.20;;;;;25.10;100.00;97565.31;6262717;27;97095;-71
2023/07/26 07:07:17;;;;;;;;;18.20;17.00;;;;;25.33;100.00;97571.09;6257800;27;96303;-70
2023/07/26 07:10:21;;;;;;;;;20.60;19.00;;;;;25.33;100.00;97569.16;6235448;27;98543;-70
2023/07/26 07:13:25;;;;;;;;;19.00;17.33;;;;;25.27;100.00;97589.84;6262531;27;96415;-70
2023/07/26 07:16:30;;;;;;;;;18.00;16.20;;;;;25.23;100.00;97588.94;6261393;27;96346;-69
2023/07/26 07:19:34;;;;;;;;;22.00;19.00;;;;;25.25;100.00;97578.38;6261804;27;96447;-69
2023/07/26 07:22:37;;;;;;;;;19.40;17.40;;;;;25.37;100.00;97581.09;6260905;27;96661;-70
2023/07/26 07:25:41;;;;;;;;;17.80;15.80;;;;;25.48;100.00;97569.56;6261015;27;96711;-70
2023/07/26 07:28:45;;;;;;;;;19.00;17.40;;;;;25.59;100.00;97571.50;6254341;27;96519;-70
2023/07/26 07:31:50;;;;;;;;;17.80;16.80;;;;;25.57;100.00;97582.06;6261060;27;96317;-70
2023/07/26 07:34:54;;;;;;;;;16.00;15.00;;;;;25.51;100.00;97583.44;6246304;27;96566;-69
2023/07/26 07:38:00;;;;;;;;;17.75;15.75;;;;;25.43;100.00;97570.59;6249673;27;96222;-69
2023/07/26 07:41:06;;;;;;;;;20.00;19.00;;;;;25.40;100.00;97572.13;6246806;27;96373;-70
2023/07/26 07:44:09;;;;;;;;;14.00;14.00;;;;;25.45;100.00;97573.84;6249291;27;96463;-70
2023/07/26 07:47:14;;;;;;;;;15.20;14.20;;;;;25.45;100.00;97582.09;6247620;27;96876;-70
2023/07/26 07:50:19;;;;;;;;;15.00;14.00;;;;;25.38;100.00;97587.41;6247877;27;96395;-70
2023/07/26 07:53:23;;;;;;;;;19.20;17.80;;;;;25.28;100.00;97588.69;6249319;27;96675;-70
2023/07/26 07:56:27;;;;;;;;;13.00;11.75;;;;;25.14;100.00;97574.50;6248248;27;96679;-69
2023/07/26 07:59:30;;;;;;;;;10.40;10.00;;;;;25.05;100.00;97584.03;6245325;27;97010;-69
2023/07/26 08:02:35;;;;;;;;;12.00;12.00;;;;;24.96;100.00;97584.97;6242500;27;96430;-70
2023/07/26 08:05:40;;;;;;;;;13.00;12.00;;;;;24.84;100.00;97592.41;6245148;27;97086;-69
2023/07/26 08:08:44;;;;;;;;;14.00;13.00;;;;;24.73;100.00;97594.06;6243021;27;96813;-70
2023/07/26 08:11:47;;;;;;;;;10.40;10.40;;;;;24.60;100.00;97609.78;6251785;27;96707;-69
2023/07/26 08:14:51;;;;;;;;;13.20;12.00;;;;;24.44;100.00;97601.38;6252456;27;96716;-69
2023/07/26 08:17:56;;;;;;;;;14.60;14.00;;;;;24.28;100.00;97607.91;6249760;27;97734;-68
2023/07/26 08:21:00;;;;;;;;;13.40;13.00;;;;;24.09;100.00;97611.16;6250482;27;96674;-69
2023/07/26 08:24:03;;;;;;;;;11.40;9.60;;;;;23.71;100.00;97584.66;6262996;27;96334;-69
2023/07/26 08:27:08;;;;;;;;;9.80;9.00;;;;;23.70;100.00;97612.53;6261119;27;98965;-69
2023/07/26 08:30:12;;;;;;;;;8.00;8.00;;;;;23.51;100.00;97610.25;6266127;27;96250;-69
2023/07/26 08:33:17;;;;;;;;;9.50;8.50;;;;;23.41;100.00;97612.59;6264296;27;96277;-69
2023/07/26 08:36:21;;;;;;;;;9.00;8.00;;;;;23.34;100.00;97624.13;6244975;27;97682;-69
2023/07/26 08:39:24;;;;;;;;;8.00;7.50;;;;;23.26;100.00;97619.50;6264600;27;96354;-69
2023/07/26 08:42:38;;;;;;;;;7.80;7.80;;;;;23.20;100.00;97627.13;6266570;27;96475;-69
2023/07/26 08:45:43;;;;;;;;;9.00;8.60;;;;;23.16;100.00;97626.19;6264304;27;96842;-69
2023/07/26 08:48:49;;;;;;;;;10.00;10.00;;;;;23.18;100.00;97625.84;6243128;27;96531;-69
2023/07/26 08:51:53;;;;;;;;;10.50;9.00;;;;;23.10;100.00;97634.97;6221969;28;98368;-72
2023/07/26 08:55:00;;;;;;;;;9.00;9.00;;;;;23.04;100.00;97644.53;6222369;28;96971;-71
2023/07/26 08:58:04;;;;;;;;;10.60;10.00;;;;;23.00;100.00;97651.84;6254642;27;96352;-70
2023/07/26 09:01:09;;;;;;;;;10.00;10.00;;;;;22.89;100.00;97643.16;6264810;27;96902;-70
2023/07/26 09:04:14;;;;;;;;;8.25;8.00;;;;;22.89;100.00;97659.66;6263830;27;98588;-70
2023/07/26 09:07:18;;;;;;;;;12.00;11.00;;;;;22.88;100.00;97655.28;6262146;27;96396;-71
2023/07/26 09:10:26;;;;;;;;;7.00;7.00;;;;;22.84;100.00;97659.84;6237542;27;98386;-69
2023/07/26 09:13:30;;;;;;;;;8.00;7.00;;;;;22.70;100.00;97660.09;6246882;27;98379;-69
2023/07/26 09:16:34;;;;;;;;;8.00;8.00;;;;;22.75;100.00;97659.91;6264920;27;96256;-69
2023/07/26 09:19:39;;;;;;;;;11.40;10.40;;;;;22.73;100.00;97662.16;6265057;27;96252;-70
2023/07/26 09:22:43;;;;;;;;;7.00;6.00;;;;;22.72;100.00;97665.25;6262966;27;96488;-69
2023/07/26 09:25:47;;;;;;;;;7.40;7.40;;;;;22.66;100.00;97661.84;6260602;27;96247;-70
2023/07/26 09:28:53;;;;;;;;;8.00;7.00;;;;;22.68;100.00;97667.81;6263832;27;96462;-71
2023/07/26 09:31:57;;;;;;;;;9.00;8.40;;;;;22.61;100.00;97677.69;6264950;27;96497;-70
2023/07/26 09:35:05;;;;;;;;;10.80;10.00;;;;;22.48;100.00;97669.31;6262856;27;96545;-71
2023/07/26 09:38:13;;;;;;;;;9.00;9.00;;;;;22.23;100.00;97663.94;6221483;28;96873;-70
2023/07/26 09:41:25;;;;;;;;;11.40;11.00;;;;;22.16;100.00;97683.66;6238040;28;98394;-70
2023/07/26 09:44:29;;;;;;;;;11.00;11.00;;;;;22.10;100.00;97684.13;6238584;28;97054;-70
2023/07/26 09:47:36;;;;;;;;;8.80;8.20;;;;;22.03;100.00;97690.13;6261392;27;96925;-71
2023/07/26 09:50:46;;;;;;;;;9.00;9.00;;;;;21.90;100.00;97713.00;6247131;27;96745;-70
2023/07/26 09:53:57;;;;;;;;;8.00;8.00;;;;;21.79;100.00;97712.56;6264221;27;98181;-70
2023/07/26 09:57:01;;;;;;;;;8.00;8.00;;;;;21.77;100.00;97714.81;6247771;27;96220;-71
2023/07/26 10:00:07;;;;;;;;;8.60;8.60;;;;;21.56;100.00;97695.44;6237590;28;97219;-71
2023/07/26 10:03:15;;;;;;;;;10.00;9.00;;;;;21.66;100.00;97715.44;6240933;27;96285;-70
2023/07/26 10:06:21;;;;;;;;;7.00;6.00;;;;;21.73;100.00;97726.75;6244389;27;96312;-71
2023/07/26 10:09:25;;;;;;;;;8.00;7.00;;;;;21.75;100.00;97727.22;6240849;28;96842;-70
2023/07/26 10:12:32;;;;;;;;;9.00;8.00;;;;;21.70;100.00;97730.16;6239055;28;97038;-70
2023/07/26 10:15:38;;;;;;;;;8.00;7.80;;;;;21.71;100.00;97729.81;6238583;27;96232;-71
2023/07/26 10:18:43;;;;;;;;;7.00;6.00;;;;;21.60;100.00;97723.00;6263300;27;96918;-70
2023/07/26 10:21:49;;;;;;;;;8.75;6.75;;;;;21.61;100.00;97728.19;6264182;27;96406;-70
2023/07/26 10:24:52;;;;;;;;;8.75;8.00;;;;;21.59;100.00;97730.47;6263879;27;96326;-70
2023/07/26 10:27:57;;;;;;;;;9.00;9.00;;;;;21.56;100.00;97741.22;6253679;27;96246;-71
2023/07/26 10:31:01;;;;;;;;;8.60;8.60;;;;;21.52;100.00;97748.50;6234958;27;98061;-71
2023/07/26 10:34:05;;;;;;;;;6.00;6.00;;;;;21.49;100.00;97752.69;6246820;27;98526;-71
2023/07/26 10:37:17;;;;;;;;;6.00;5.60;;;;;21.44;100.00;97754.78;6262106;27;96344;-70
2023/07/26 10:40:33;;;;;;;;;6.00;5.20;;;;;21.36;100.00;97766.50;6264256;27;96334;-70
2023/07/26 10:43:41;;;;;;;;;5.00;5.00;;;;;21.30;100.00;97759.59;6245771;27;98565;-70
2023/07/26 10:46:50;;;;;;;;;7.00;7.00;;;;;21.27;100.00;97758.28;6239901;27;96781;-70
2023/07/26 10:49:55;;;;;;;;;7.00;5.00;;;;;21.26;100.00;97764.09;6264257;27;96207;-71
2023/07/26 10:53:30;;;;;;;;;6.00;6.00;;;;;21.31;100.00;97763.91;6244666;27;99216;-69
2023/07/26 10:56:34;;;;;;;;;9.00;8.25;;;;;21.35;100.00;97768.47;6255289;27;96343;-70
2023/07/26 10:59:50;;;;;;;;;7.80;6.20;;;;;21.38;100.00;97770.56;6237209;28;96536;-69
2023/07/26 11:03:01;;;;;;;;;8.00;8.00;;;;;21.36;100.00;97775.56;6238566;27;96383;-69
2023/07/26 11:06:05;;;;;;;;;9.00;9.00;;;;;21.39;100.00;97776.88;6254447;27;97567;-69
2023/07/26 11:09:19;;;;;;;;;6.80;6.20;;;;;21.42;100.00;97776.22;6263545;27;96241;-69
2023/07/26 11:12:24;;;;;;;;;6.00;6.00;;;;;21.47;100.00;97776.88;6262134;27;96792;-68
2023/07/26 11:15:29;;;;;;;;;9.00;8.00;;;;;21.52;100.00;97786.88;6262585;27;97535;-69
2023/07/26 11:18:53;;;;;;;;;6.25;6.25;;;;;21.54;100.00;97776.41;6245919;27;96277;-69
2023/07/26 11:22:04;;;;;;;;;8.00;8.00;;;;;21.63;100.00;97790.94;6236538;28;99152;-69
2023/07/26 11:25:11;;;;;;;;;6.60;6.60;;;;;21.65;100.00;97785.94;6243653;27;96755;-70
2023/07/26 11:28:15;;;;;;;;;6.50;6.50;;;;;21.69;100.00;97788.88;6262459;27;96242;-69
2023/07/26 11:31:20;;;;;;;;;7.00;6.00;;;;;21.69;100.00;97789.69;6260181;27;96915;-69
2023/07/26 11:34:24;;;;;;;;;5.75;5.75;;;;;21.68;100.00;97776.28;6247023;27;98356;-69
2023/07/26 11:37:28;;;;;;;;;5.00;4.00;;;;;21.86;100.00;97794.38;6219493;28;96683;-68
2023/07/26 11:40:39;;;;;;;;;6.00;6.00;;;;;21.87;100.00;97798.72;6237573;27;96390;-69
2023/07/26 11:43:43;;;;;;;;;6.20;5.20;;;;;21.84;100.00;97808.44;6218203;28;96812;-69
2023/07/26 11:46:47;;;;;;;;;6.50;6.00;;;;;21.82;100.00;97815.34;6258455;27;96744;-70
2023/07/26 11:49:51;;;;;;;;;6.00;5.75;;;;;21.72;100.00;97826.63;6244169;27;98425;-69
2023/07/26 11:53:04;;;;;;;;;6.00;6.00;;;;;21.39;100.00;97826.22;6262309;27;96314;-69
2023/07/26 11:56:09;;;;;;;;;4.50;4.00;;;;;21.24;100.00;97834.88;6247046;27;96327;-70
2023/07/26 11:59:14;;;;;;;;;4.40;4.00;;;;;20.98;100.00;97843.72;6239022;27;96527;-69
2023/07/26 12:02:18;;;;;;;;;3.00;3.00;;;;;20.82;100.00;97845.25;6247652;27;96890;-69
2023/07/26 12:05:25;;;;;;;;;3.00;3.00;;;;;20.72;100.00;97849.06;6258186;27;96582;-68
2023/07/26 12:08:30;;;;;;;;;5.00;4.00;;;;;20.66;100.00;97849.50;6262587;27;96527;-69
2023/07/26 12:11:36;;;;;;;;;3.00;3.00;;;;;20.54;100.00;97852.00;6262465;27;96279;-69
2023/07/26 12:14:39;;;;;;;;;3.00;3.00;;;;;20.46;100.00;97855.47;6261958;27;96656;-69
2023/07/26 12:18:01;;;;;;;;;2.60;2.60;;;;;20.38;100.00;97858.97;6262329;27;96495;-69
2023/07/26 12:21:07;;;;;;;;;5.00;5.00;;;;;20.33;100.00;97865.34;6253859;27;96275;-68
2023/07/26 12:24:17;;;;;;;;;5.00;5.00;;;;;20.25;100.00;97861.41;6228318;27;96802;-70
2023/07/26 12:27:22;;;;;;;;;6.50;6.00;;;;;20.26;100.00;97873.97;6260452;27;96719;-69
2023/07/26 12:30:27;;;;;;;;;5.00;5.00;;;;;20.18;100.00;97876.66;6244323;27;98166;-69
2023/07/26 12:33:30;;;;;;;;;2.80;2.80;;;;;20.13;100.00;97880.31;6259920;27;99138;-68
2023/07/26 12:36:47;;;;;;;;;5.00;5.00;;;;;20.08;100.00;97891.38;6260853;27;96736;-69
2023/07/26 12:39:51;;;;;;;;;3.25;3.25;;;;;19.98;100.00;97897.06;6261744;27;96329;-69
2023/07/26 12:42:56;;;;;;;;;7.00;6.00;;;;;19.98;100.00;97898.97;6260359;27;98562;-69
2023/07/26 12:46:00;;;;;;;;;6.00;5.00;;;;;20.00;100.00;97910.41;6245176;27;96523;-68
2023/07/26 12:49:07;;;;;;;;;3.00;3.00;;;;;20.02;100.00;97908.19;6243324;27;96231;-69
2023/07/26 12:52:11;;;;;;;;;6.00;6.00;;;;;19.94;100.00;97917.13;6258428;27;98353;-69
2023/07/26 12:55:14;;;;;;;;;3.00;3.00;;;;;19.93;100.00;97913.56;6260796;27;96477;-69
2023/07/26 12:58:19;;;;;;;;;3.00;3.00;;;;;19.87;100.00;97923.81;6266032;27;97109;-69
2023/07/26 13:01:23;;;;;;;;;5.00;5.00;;;;;19.89;100.00;97935.25;6266384;27;96403;-71
2023/07/26 13:04:26;;;;;;;;;4.60;4.60;;;;;19.90;100.00;97936.06;6265131;27;96264;-70
2023/07/26 13:07:30;;;;;;;;;3.00;3.00;;;;;19.80;100.00;97934.34;6265981;27;97635;-70
2023/07/26 13:10:34;;;;;;;;;4.00;3.00;;;;;19.81;100.00;97944.16;6260545;27;97100;-70
2023/07/26 13:13:39;;;;;;;;;5.00;5.00;;;;;19.76;100.00;97955.22;6262925;27;96342;-70
2023/07/26 13:16:43;;;;;;;;;2.00;2.00;;;;;19.70;100.00;97959.16;6242178;27;96571;-70
2023/07/26 13:19:46;;;;;;;;;1.60;1.60;;;;;19.70;100.00;97972.00;6237195;28;97023;-70
2023/07/26 13:22:50;;;;;;;;;1.20;1.20;;;;;19.63;100.00;97975.16;6243625;27;98107;-70
2023/07/26 13:25:53;;;;;;;;;4.00;3.00;;;;;19.61;100.00;97991.03;6241433;27;96377;-70
2023/07/26 13:28:59;;;;;;;;;2.00;2.00;;;;;19.56;100.00;97991.13;6250809;27;96478;-70
2023/07/26 13:32:02;;;;;;;;;3.40;3.40;;;;;19.48;100.00;97997.31;6257175;27;96662;-70
2023/07/26 13:35:06;;;;;;;;;3.00;3.00;;;;;19.39;100.00;97993.63;6246189;27;98413;-70
2023/07/26 13:38:10;;;;;;;;;3.50;3.50;;;;;19.36;100.00;98014.16;6240786;27;96551;-69
2023/07/26 13:41:13;;;;;;;;;6.00;4.00;;;;;19.22;100.00;98018.75;6248107;27;96673;-70
2023/07/26 13:44:18;;;;;;;;;3.60;3.60;;;;;19.22;100.00;98024.22;6256582;27;96162;-70
2023/07/26 13:47:22;;;;;;;;;3.20;3.00;;;;;19.17;100.00;98026.22;6262903;27;96316;-70
2023/07/26 13:50:26;;;;;;;;;3.00;3.00;;;;;19.15;100.00;98017.53;6244244;27;96944;-70
2023/07/26 13:53:29;;;;;;;;;2.75;2.75;;;;;19.10;100.00;98026.63;6256826;27;96329;-70
2023/07/26 13:56:33;;;;;;;;;3.60;3.60;;;;;19.09;100.00;98029.66;6257118;27;96741;-69
2023/07/26 13:59:38;;;;;;;;;2.00;2.00;;;;;19.09;100.00;98029.66;6261281;27;96801;-69
2023/07/26 14:02:41;;;;;;;;;1.00;1.00;;;;;19.13;100.00;98033.41;6258352;27;96410;-68
2023/07/26 14:05:45;;;;;;;;;2.40;2.40;;;;;19.01;100.00;98034.66;6261559;27;96937;-68
2023/07/26 14:08:49;;;;;;;;;2.00;2.00;;;;;18.85;100.00;98043.41;6258859;27;96905;-69
2023/07/26 14:11:53;;;;;;;;;4.00;4.00;;;;;18.71;100.00;98040.59;6262361;27;96501;-69
2023/07/26 14:14:58;;;;;;;;;3.00;3.00;;;;;18.76;100.00;98043.25;6229144;27;98410;-69
2023/07/26 14:18:01;;;;;;;;;4.50;4.50;;;;;18.81;100.00;98047.84;6249839;27;96350;-69